This is the latest recevied weather packets stored in our database for station/object IS0HYQ-12. If no packets are shown the sender has not sent any weather packets the latest 10 day(s).
| Time | Temp. | Humidity | Pressure | Rain* | Wind** | Luminosity | Snow |
|---|---|---|---|---|---|---|---|
| 1777822360 | 30.56° C | 31% | 1015.7 hPa | - | - | - | - |
| 1777820560 | 27.22° C | 36% | 1015.7 hPa | - | - | - | - |
| 1777819660 | 30° C | 32% | 1015.7 hPa | - | - | - | - |
| 1777818760 | 30.56° C | 31% | 1015.9 hPa | - | - | - | - |
| 1777817859 | 28.33° C | 38% | 1016.1 hPa | - | - | - | - |
| 1777816959 | 27.78° C | 40% | 1016.3 hPa | - | - | - | - |
| 1777816058 | 27.22° C | 37% | 1016.5 hPa | - | - | - | - |
| 1777814264 | 27.22° C | 41% | 1017 hPa | - | - | - | - |
| 1777813363 | 28.89° C | 31% | 1016.8 hPa | - | - | - | - |
| 1777812463 | 28.33° C | 34% | 1017.1 hPa | - | - | - | - |
| 1777811563 | 27.78° C | 37% | 1017.3 hPa | - | - | - | - |
| 1777810662 | 27.78° C | 38% | 1017.4 hPa | - | - | - | - |
| 1777809762 | 27.22° C | 37% | 1017.4 hPa | - | - | - | - |
| 1777808862 | 26.67° C | 36% | 1017.5 hPa | - | - | - | - |
| 1777807961 | 25.56° C | 40% | 1018 hPa | - | - | - | - |
| 1777807074 | 25.56° C | 44% | 1018.1 hPa | - | - | - | - |
| 1777806161 | 26.11° C | 41% | 1018.1 hPa | - | - | - | - |
| 1777804360 | 28.33° C | 22% | 1018.4 hPa | - | - | - | - |
| 1777803460 | 28.33° C | 20% | 1018.6 hPa | - | - | - | - |
| 1777802560 | 28.89° C | 20% | 1018.4 hPa | - | - | - | - |
| 1777801660 | 28.89° C | 24% | 1018.8 hPa | - | - | - | - |
| 1777800759 | 30.56° C | 23% | 1018.8 hPa | - | - | - | - |
| 1777799859 | 28.89° C | 24% | 1018.8 hPa | - | - | - | - |
| 1777798959 | 30.56° C | 23% | 1018.9 hPa | - | - | - | - |
| 1777798058 | 29.44° C | 22% | 1018.9 hPa | - | - | - | - |
* Rain since midnight (hover to see other rain measurements)
** Current wind speed in m/s (hover to see current wind gust speed)